Ana Sayfa
METAR-TAF:

METAR-TAF

Havaalanları :

Port Isabel-Cameron County Airport

Port Isabel, Teksas, Amerika Birleşik Devletleri

Enlem: 26-09-33N, Boylam: 097-20-15W, yükseklik: 5 m

Güncel hava durumu gözlemi

Rapor saat 14:53 UTC de 58 dakika önce yapıldı.
Rüzgar kuzey/kuzeybatıdan 9 kt
Sıcaklık 9°C
Nem 93%
Basınç 1021 hPa
Görüş mesafesi: 6.4 km
500 ft yükseklikte parçalı çok bulutlu
1600 ft yükseklikte çok bulutlu
Pus

METAR: KPIL 141453Z AUTO 33009KT 4SM BR BKN005 OVC016 09/08 A3015 RMK AO2 RAB23E32 CIG 003V007 SLP209 P0001 60001 T00890078 51021

Saat: 09:51 (15:51 UTC)


TAF: eksik

4.000'den fazla havaalanı için hava durumu gözlemleri ve tahminleri (METAR ve TAF raporları).

Kullanılabilir istasyonlar harita üzerinde sarı ve kırmızı noktalarla gösterilir.

İstasyonun adını görmek için fareyi noktanın üzerinde gezdirin.

Sonrasında hava gözlem ve tahminlerini görmek için tıklayın.

Haritayı değiştirmek için: yaklaştırmak için siyah artı işaretli yeşil düğmeye ve uzaklaştırmak için de eksi işaretli düğmeye hızla tıklayın; bitişik haritalar için yeşil okları kullanın.


METAR-TAF: